createdAt,value
2023-03-24T00:07:25.510Z,44.16
2023-03-24T00:17:29.166Z,44.30
2023-03-24T00:27:31.155Z,44.58
2023-03-24T00:37:32.549Z,44.17
2023-03-24T00:47:37.939Z,44.45
2023-03-24T00:57:40.747Z,44.42
2023-03-24T01:07:43.178Z,44.48
2023-03-24T01:17:46.965Z,44.46
2023-03-24T01:27:49.503Z,44.47
2023-03-24T01:37:51.013Z,45.07
2023-03-24T01:47:52.432Z,44.77
2023-03-24T01:57:56.348Z,44.97
2023-03-24T02:08:19.666Z,45.01
2023-03-24T02:18:45.192Z,45.01
2023-03-24T02:28:50.052Z,44.75
2023-03-24T02:39:12.812Z,44.90
2023-03-24T02:49:29.114Z,45.14
2023-03-24T02:59:40.522Z,45.18
2023-03-24T03:09:49.696Z,45.77
2023-03-24T03:20:13.219Z,45.26
2023-03-24T03:30:16.716Z,45.38
2023-03-24T03:40:21.866Z,45.76
2023-03-24T03:50:23.468Z,45.47
2023-03-24T04:00:26.344Z,45.45
2023-03-24T04:10:50.114Z,45.69
2023-03-24T04:21:20.186Z,45.57
2023-03-24T04:31:30.159Z,45.68
2023-03-24T04:41:31.823Z,45.78
2023-03-24T04:51:33.429Z,45.27
2023-03-24T05:01:37.361Z,45.28
2023-03-24T05:11:38.991Z,45.34
2023-03-24T05:21:40.781Z,44.96
2023-03-24T05:31:42.188Z,44.59
2023-03-24T05:41:43.572Z,44.00
2023-03-24T05:51:45.165Z,43.64
2023-03-24T06:01:48.152Z,43.35
2023-03-24T06:11:49.752Z,43.29
2023-03-24T06:21:51.313Z,43.28
2023-03-24T06:31:52.872Z,43.31
2023-03-24T06:41:54.233Z,43.31
2023-03-24T06:51:55.834Z,43.08
2023-03-24T07:01:57.389Z,43.17
2023-03-24T07:11:58.792Z,43.16
2023-03-24T07:22:01.298Z,43.08
2023-03-24T07:32:03.802Z,42.97
2023-03-24T07:42:06.166Z,43.07
2023-03-24T07:52:07.621Z,42.87
2023-03-24T08:02:27.267Z,42.98
2023-03-24T08:12:28.866Z,42.73
2023-03-24T08:22:30.456Z,42.13
2023-03-24T08:32:31.883Z,40.97
2023-03-24T08:42:33.395Z,39.36
2023-03-24T08:52:34.803Z,39.68
2023-03-24T09:02:36.516Z,38.99
2023-03-24T09:12:38.214Z,39.22
2023-03-24T09:22:43.417Z,38.78
2023-03-24T09:32:45.468Z,36.03
2023-03-24T09:42:48.527Z,38.45
2023-03-24T09:52:52.679Z,35.45
2023-03-24T10:02:57.660Z,33.77
2023-03-24T10:13:05.698Z,34.72
2023-03-24T10:23:19.178Z,36.58
2023-03-24T10:33:20.838Z,37.61
2023-03-24T10:43:22.252Z,37.98
2023-03-24T10:53:23.629Z,38.18
2023-03-24T11:03:30.008Z,37.99
2023-03-24T11:13:32.922Z,38.14
2023-03-24T11:23:42.733Z,38.00
2023-03-24T11:33:47.508Z,38.16
2023-03-24T11:43:48.912Z,38.01
2023-03-24T11:53:51.768Z,38.26
2023-03-24T12:03:59.401Z,38.46
2023-03-24T12:14:01.239Z,38.28
2023-03-24T12:24:14.606Z,38.75
2023-03-24T12:34:33.609Z,38.07
2023-03-24T12:44:53.668Z,38.13
2023-03-24T12:55:25.785Z,38.25
2023-03-24T13:05:31.352Z,38.22
2023-03-24T13:15:39.529Z,38.40
2023-03-24T13:26:12.264Z,38.29
2023-03-24T13:36:25.700Z,38.57
2023-03-24T13:46:28.751Z,38.36
2023-03-24T13:56:35.571Z,38.43
2023-03-24T14:06:48.233Z,38.31
2023-03-24T14:17:04.821Z,38.46
2023-03-24T14:27:32.693Z,37.90
2023-03-24T14:37:34.076Z,38.76
2023-03-24T14:47:37.501Z,38.82
2023-03-24T14:57:43.530Z,39.12
2023-03-24T15:07:46.543Z,39.09
2023-03-24T15:17:48.271Z,39.11
2023-03-24T15:27:53.078Z,39.27
2023-03-24T15:37:56.206Z,39.09
2023-03-24T15:47:58.202Z,39.32
2023-03-24T15:58:01.430Z,39.16
2023-03-24T16:08:07.309Z,39.34
2023-03-24T16:18:12.862Z,39.53
2023-03-24T16:28:15.982Z,40.04
2023-03-24T16:38:17.387Z,40.38
2023-03-24T16:48:18.798Z,40.69
2023-03-24T16:58:20.263Z,40.87
2023-03-24T17:08:21.714Z,41.19
2023-03-24T17:18:23.300Z,41.11
2023-03-24T17:28:24.822Z,41.24
2023-03-24T17:38:26.890Z,41.43
2023-03-24T17:48:28.425Z,41.51
2023-03-24T17:58:30.756Z,41.79
2023-03-24T18:08:32.163Z,41.79
2023-03-24T18:18:34.495Z,42.02
2023-03-24T18:28:37.143Z,42.11
2023-03-24T18:38:39.122Z,42.09
2023-03-24T18:48:41.792Z,42.12
2023-03-24T18:58:43.447Z,42.17
2023-03-24T19:08:46.275Z,42.23
2023-03-24T19:18:48.208Z,42.30
2023-03-24T19:28:49.733Z,42.39
2023-03-24T19:38:51.276Z,42.49
2023-03-24T19:48:52.891Z,42.51
2023-03-24T19:58:54.490Z,42.60
2023-03-24T20:08:55.930Z,42.71
2023-03-24T20:18:57.504Z,42.58
2023-03-24T20:28:59.103Z,42.53
2023-03-24T20:39:01.878Z,42.81
2023-03-24T20:49:03.621Z,42.75
2023-03-24T20:59:07.359Z,42.75
2023-03-24T21:09:08.836Z,42.80
2023-03-24T21:19:13.073Z,42.79
2023-03-24T21:29:14.767Z,42.58
2023-03-24T21:39:16.432Z,42.75
2023-03-24T21:49:18.954Z,42.49
2023-03-24T21:59:20.861Z,42.62
2023-03-24T22:09:27.428Z,42.46
2023-03-24T22:19:28.829Z,42.76
2023-03-24T22:29:30.371Z,42.49
2023-03-24T22:39:32.941Z,42.60
2023-03-24T22:49:34.481Z,42.64
2023-03-24T22:59:36.278Z,42.72
2023-03-24T23:09:38.195Z,42.77
2023-03-24T23:19:39.605Z,42.87
2023-03-24T23:29:41.108Z,42.88
2023-03-24T23:39:42.668Z,42.97
2023-03-24T23:49:44.305Z,42.98
2023-03-24T23:59:49.415Z,42.90
